Back to Top

Language: 

My Weather Underground Personal Weather Station Historical Data with Graphs...

Delerius Weather Station Historical Data
Daily Summary for January 9, 2017 Units:  Both    English   Metric
« Previous Day
Next Day »
Daily Weekly Monthly Yearly Custom
  High: Low: Average:
Temperature: 49.9 °F /  9.9 °C 39.9 °F /  4.4 °C 44.7 °F /  7.1 °C
Dew Point: 46.8 °F /  8.2 °C 37.5 °F /  3.1 °C 42.2 °F /  5.7 °C
Humidity: 96 % 85 % 91 %
Wind Speed: 21.0 mph /  33.8 km/h - 9.1 mph /  14.6 km/h
Wind Gust: 27.0 mph /  43.5 km/h - -
Wind:- - WSW
Pressure: 30.28 in /  1025.3 hPa 29.69 in /  1005.3 hPa -
Precipitation: 0.07 in /  1.78 mm    
Historical Graphs
 
 
Tabular Data for January 9, 2017
Time Temperature Dew Point Pressure Wind Wind Speed Wind Gust Humidity Rainfall Rate (Hourly) solar Conditions
00:00 43.1 °F /  6.2 °C 42.0 °F /  5.6 °C 30.28 in /  1025.3 hPa WSW 1.0 mph /  1.6 km/h 1.0 mph /  1.6 km/h 96 % 0.00 in /  0 mm 0 W/m2
00:05 43.2 °F /  6.2 °C 42.1 °F /  5.6 °C 30.28 in /  1025.3 hPa Calm   1.0 mph /  1.6 km/h 96 % 0.00 in /  0 mm 0 W/m2
00:15 43.4 °F /  6.3 °C 42.3 °F /  5.7 °C 30.28 in /  1025.3 hPa Calm     96 % 0.00 in /  0 mm 0 W/m2
00:20 43.5 °F /  6.4 °C 42.4 °F /  5.8 °C 30.27 in /  1024.9 hPa Calm   1.0 mph /  1.6 km/h 96 % 0.00 in /  0 mm 0 W/m2
00:25 43.7 °F /  6.5 °C 42.6 °F /  5.9 °C 30.27 in /  1024.9 hPa Calm   2.0 mph /  3.2 km/h 96 % 0.00 in /  0 mm 0 W/m2
00:30 43.9 °F /  6.6 °C 42.8 °F /  6 °C 30.27 in /  1024.9 hPa SSW 2.0 mph /  3.2 km/h 4.0 mph /  6.4 km/h 96 % 0.00 in /  0 mm 0 W/m2
00:40 44.6 °F /  7 °C 43.5 °F /  6.4 °C 30.26 in /  1024.6 hPa SW 5.0 mph /  8 km/h 5.0 mph /  8 km/h 96 % 0.00 in /  0 mm 0 W/m2
00:45 44.7 °F /  7.1 °C 43.6 °F /  6.4 °C 30.26 in /  1024.6 hPa SW 4.0 mph /  6.4 km/h 5.0 mph /  8 km/h 96 % 0.00 in /  0 mm 0 W/m2
00:50 44.7 °F /  7.1 °C 43.4 °F /  6.3 °C 30.25 in /  1024.3 hPa SW 1.0 mph /  1.6 km/h 4.0 mph /  6.4 km/h 95 % 0.00 in /  0 mm 0 W/m2
00:55 44.6 °F /  7 °C 43.3 °F /  6.3 °C 30.25 in /  1024.3 hPa SW 1.0 mph /  1.6 km/h 4.0 mph /  6.4 km/h 95 % 0.00 in /  0 mm 0 W/m2
01:00 44.5 °F /  6.9 °C 43.2 °F /  6.2 °C 30.25 in /  1024.3 hPa SW 1.0 mph /  1.6 km/h 1.0 mph /  1.6 km/h 95 % 0.00 in /  0 mm 0 W/m2
01:05 44.3 °F /  6.8 °C 42.7 °F /  5.9 °C 30.25 in /  1024.3 hPa SW 1.0 mph /  1.6 km/h 3.0 mph /  4.8 km/h 94 % 0.00 in /  0 mm 0 W/m2
01:15 44.3 °F /  6.8 °C 43.0 °F /  6.1 °C 30.24 in /  1023.9 hPa SW 1.0 mph /  1.6 km/h 4.0 mph /  6.4 km/h 95 % 0.00 in /  0 mm 0 W/m2
01:20 44.3 °F /  6.8 °C 43.0 °F /  6.1 °C 30.24 in /  1023.9 hPa SW 1.0 mph /  1.6 km/h 1.0 mph /  1.6 km/h 95 % 0.00 in /  0 mm 0 W/m2
01:25 44.3 °F /  6.8 °C 43.0 °F /  6.1 °C 30.24 in /  1023.9 hPa SW 2.0 mph /  3.2 km/h 2.0 mph /  3.2 km/h 95 % 0.00 in /  0 mm 0 W/m2
01:30 44.4 °F /  6.9 °C 43.1 °F /  6.2 °C 30.24 in /  1023.9 hPa SW 3.0 mph /  4.8 km/h 6.0 mph /  9.7 km/h 95 % 0.00 in /  0 mm 0 W/m2
01:35 44.5 °F /  6.9 °C 43.2 °F /  6.2 °C 30.24 in /  1023.9 hPa SW 3.0 mph /  4.8 km/h 6.0 mph /  9.7 km/h 95 % 0.00 in /  0 mm 0 W/m2
01:40 44.4 °F /  6.9 °C 43.1 °F /  6.2 °C 30.23 in /  1023.6 hPa SW 2.0 mph /  3.2 km/h 2.0 mph /  3.2 km/h 95 % 0.00 in /  0 mm 0 W/m2
01:50 44.3 °F /  6.8 °C 42.7 °F /  5.9 °C 30.23 in /  1023.6 hPa SW 1.0 mph /  1.6 km/h 1.0 mph /  1.6 km/h 94 % 0.00 in /  0 mm 0 W/m2
01:55 44.3 °F /  6.8 °C 43.0 °F /  6.1 °C 30.23 in /  1023.6 hPa SW 1.0 mph /  1.6 km/h 3.0 mph /  4.8 km/h 95 % 0.00 in /  0 mm 0 W/m2
02:00 44.4 °F /  6.9 °C 43.1 °F /  6.2 °C 30.22 in /  1023.2 hPa SW 2.0 mph /  3.2 km/h 2.0 mph /  3.2 km/h 95 % 0.00 in /  0 mm 0 W/m2
02:05 44.4 °F /  6.9 °C 43.1 °F /  6.2 °C 30.22 in /  1023.2 hPa SW 1.0 mph /  1.6 km/h 4.0 mph /  6.4 km/h 95 % 0.00 in /  0 mm 0 W/m2
02:10 44.2 °F /  6.8 °C 42.6 °F /  5.9 °C 30.21 in /  1022.9 hPa Calm   4.0 mph /  6.4 km/h 94 % 0.00 in /  0 mm 0 W/m2
02:15 43.9 °F /  6.6 °C 42.3 °F /  5.7 °C 30.21 in /  1022.9 hPa SW 1.0 mph /  1.6 km/h 4.0 mph /  6.4 km/h 94 % 0.00 in /  0 mm 0 W/m2
02:20 43.8 °F /  6.6 °C 42.5 °F /  5.8 °C 30.21 in /  1022.9 hPa SW 1.0 mph /  1.6 km/h 1.0 mph /  1.6 km/h 95 % 0.00 in /  0 mm 0 W/m2
02:30 44.4 °F /  6.9 °C 43.3 °F /  6.3 °C 30.21 in /  1022.9 hPa SW 2.0 mph /  3.2 km/h 2.0 mph /  3.2 km/h 96 % 0.00 in /  0 mm 0 W/m2
02:35 44.5 °F /  6.9 °C 43.2 °F /  6.2 °C 30.20 in /  1022.6 hPa SW 1.0 mph /  1.6 km/h 4.0 mph /  6.4 km/h 95 % 0.00 in /  0 mm 0 W/m2
02:40 44.3 °F /  6.8 °C 43.0 °F /  6.1 °C 30.20 in /  1022.6 hPa SW 1.0 mph /  1.6 km/h 1.0 mph /  1.6 km/h 95 % 0.00 in /  0 mm 0 W/m2
02:45 43.9 °F /  6.6 °C 42.6 °F /  5.9 °C 30.19 in /  1022.2 hPa SW 1.0 mph /  1.6 km/h 4.0 mph /  6.4 km/h 95 % 0.00 in /  0 mm 0 W/m2
02:50 44.1 °F /  6.7 °C 42.8 °F /  6 °C 30.19 in /  1022.2 hPa SW 1.0 mph /  1.6 km/h 1.0 mph /  1.6 km/h 95 % 0.00 in /  0 mm 0 W/m2
03:00 44.3 °F /  6.8 °C 43.2 °F /  6.2 °C 30.18 in /  1021.9 hPa SW 1.0 mph /  1.6 km/h 4.0 mph /  6.4 km/h 96 % 0.00 in /  0 mm 0 W/m2
03:05 44.6 °F /  7 °C 43.5 °F /  6.4 °C 30.18 in /  1021.9 hPa SW 2.0 mph /  3.2 km/h 4.0 mph /  6.4 km/h 96 % 0.00 in /  0 mm 0 W/m2
03:10 44.6 °F /  7 °C 43.5 °F /  6.4 °C 30.18 in /  1021.9 hPa SW 4.0 mph /  6.4 km/h 4.0 mph /  6.4 km/h 96 % 0.00 in /  0 mm 0 W/m2
03:15 44.7 °F /  7.1 °C 43.6 °F /  6.4 °C 30.17 in /  1021.6 hPa South 6.0 mph /  9.7 km/h 6.0 mph /  9.7 km/h 96 % 0.00 in /  0 mm 0 W/m2
03:20 45.1 °F /  7.3 °C 44.0 °F /  6.7 °C 30.17 in /  1021.6 hPa SW 6.0 mph /  9.7 km/h 6.0 mph /  9.7 km/h 96 % 0.00 in /  0 mm 0 W/m2
03:25 45.6 °F /  7.6 °C 44.5 °F /  6.9 °C 30.17 in /  1021.6 hPa SSW 6.0 mph /  9.7 km/h 6.0 mph /  9.7 km/h 96 % 0.00 in /  0 mm 0 W/m2
03:35 46.1 °F /  7.8 °C 45.0 °F /  7.2 °C 30.16 in /  1021.2 hPa SSE 6.0 mph /  9.7 km/h 9.0 mph /  14.5 km/h 96 % 0.00 in /  0 mm 0 W/m2
03:40 46.3 °F /  7.9 °C 45.2 °F /  7.3 °C 30.16 in /  1021.2 hPa South 6.0 mph /  9.7 km/h 7.0 mph /  11.3 km/h 96 % 0.00 in /  0 mm 0 W/m2
03:45 46.4 °F /  8 °C 45.0 °F /  7.2 °C 30.16 in /  1021.2 hPa SSW 5.0 mph /  8 km/h 7.0 mph /  11.3 km/h 95 % 0.00 in /  0 mm 0 W/m2
03:55 46.6 °F /  8.1 °C 45.2 °F /  7.3 °C 30.15 in /  1020.9 hPa SSE 6.0 mph /  9.7 km/h 8.0 mph /  12.9 km/h 95 % 0.00 in /  0 mm 0 W/m2
04:05 46.9 °F /  8.3 °C 45.5 °F /  7.5 °C 30.14 in /  1020.5 hPa South 6.0 mph /  9.7 km/h 6.0 mph /  9.7 km/h 95 % 0.00 in /  0 mm 0 W/m2
04:10 47.0 °F /  8.3 °C 45.6 °F /  7.6 °C 30.14 in /  1020.5 hPa South 6.0 mph /  9.7 km/h 6.0 mph /  9.7 km/h 95 % 0.00 in /  0 mm 0 W/m2
04:15 47.1 °F /  8.4 °C 45.7 °F /  7.6 °C 30.13 in /  1020.2 hPa SSE 6.0 mph /  9.7 km/h 8.0 mph /  12.9 km/h 95 % 0.00 in /  0 mm 0 W/m2
04:20 47.2 °F /  8.4 °C 45.8 °F /  7.7 °C 30.13 in /  1020.2 hPa SSE 6.0 mph /  9.7 km/h 6.0 mph /  9.7 km/h 95 % 0.00 in /  0 mm 0 W/m2
04:30 47.3 °F /  8.5 °C 45.9 °F /  7.7 °C 30.12 in /  1019.9 hPa SE 5.0 mph /  8 km/h 5.0 mph /  8 km/h 95 % 0.00 in /  0 mm 0 W/m2
04:35 47.5 °F /  8.6 °C 46.1 °F /  7.8 °C 30.11 in /  1019.5 hPa ESE 5.0 mph /  8 km/h 5.0 mph /  8 km/h 95 % 0.00 in /  0 mm 0 W/m2
04:40 47.5 °F /  8.6 °C 45.9 °F /  7.7 °C 30.10 in /  1019.2 hPa ESE 6.0 mph /  9.7 km/h 9.0 mph /  14.5 km/h 94 % 0.00 in /  0 mm 0 W/m2
04:50 47.5 °F /  8.6 °C 45.9 °F /  7.7 °C 30.09 in /  1018.8 hPa East 6.0 mph /  9.7 km/h 6.0 mph /  9.7 km/h 94 % 0.00 in /  0 mm 0 W/m2
04:55 47.7 °F /  8.7 °C 46.1 °F /  7.8 °C 30.09 in /  1018.8 hPa East 5.0 mph /  8 km/h 6.0 mph /  9.7 km/h 94 % 0.00 in /  0 mm 0 W/m2
05:00 47.7 °F /  8.7 °C 46.1 °F /  7.8 °C 30.09 in /  1018.8 hPa East 4.0 mph /  6.4 km/h 4.0 mph /  6.4 km/h 94 % 0.00 in /  0 mm 0 W/m2
05:05 47.7 °F /  8.7 °C 46.1 °F /  7.8 °C 30.09 in /  1018.8 hPa ESE 3.0 mph /  4.8 km/h 7.0 mph /  11.3 km/h 94 % 0.00 in /  0 mm 0 W/m2
05:10 47.8 °F /  8.8 °C 46.2 °F /  7.9 °C 30.09 in /  1018.8 hPa ENE 3.0 mph /  4.8 km/h 3.0 mph /  4.8 km/h 94 % 0.00 in /  0 mm 0 W/m2
05:15 48.0 °F /  8.9 °C 46.4 °F /  8 °C 30.09 in /  1018.8 hPa SSE 3.0 mph /  4.8 km/h 4.0 mph /  6.4 km/h 94 % 0.00 in /  0 mm 0 W/m2
05:25 48.2 °F /  9 °C 46.6 °F /  8.1 °C 30.08 in /  1018.5 hPa SW 4.0 mph /  6.4 km/h 10.0 mph /  16.1 km/h 94 % 0.00 in /  0 mm 0 W/m2
05:30 48.6 °F /  9.2 °C 46.7 °F /  8.2 °C 30.08 in /  1018.5 hPa West 8.0 mph /  12.9 km/h 8.0 mph /  12.9 km/h 93 % 0.00 in /  0 mm 0 W/m2
05:40 49.2 °F /  9.6 °C 46.7 °F /  8.2 °C 30.07 in /  1018.2 hPa SW 10.0 mph /  16.1 km/h 13.0 mph /  20.9 km/h 91 % 0.00 in /  0 mm 0 W/m2
05:45 49.5 °F /  9.7 °C 46.7 °F /  8.2 °C 30.07 in /  1018.2 hPa SW 13.0 mph /  20.9 km/h 23.0 mph /  37 km/h 90 % 0.00 in /  0 mm 0 W/m2
05:50 49.6 °F /  9.8 °C 46.8 °F /  8.2 °C 30.06 in /  1017.8 hPa SSW 13.0 mph /  20.9 km/h 18.0 mph /  29 km/h 90 % 0.00 in /  0 mm 0 W/m2
05:55 49.7 °F /  9.8 °C 46.6 °F /  8.1 °C 30.05 in /  1017.5 hPa SW 14.0 mph /  22.5 km/h 18.0 mph /  29 km/h 89 % 0.00 in /  0 mm 0 W/m2
06:05 49.9 °F /  9.9 °C 46.5 °F /  8.1 °C 30.04 in /  1017.2 hPa SW 16.0 mph /  25.7 km/h 24.0 mph /  38.6 km/h 88 % 0.00 in /  0 mm 0 W/m2
06:15 49.9 °F /  9.9 °C 46.5 °F /  8.1 °C 30.04 in /  1017.2 hPa WSW 16.0 mph /  25.7 km/h 16.0 mph /  25.7 km/h 88 % 0.00 in /  0 mm 0 W/m2
06:20 49.9 °F /  9.9 °C 46.5 °F /  8.1 °C 30.03 in /  1016.8 hPa SW 17.0 mph /  27.4 km/h 24.0 mph /  38.6 km/h 88 % 0.00 in /  0 mm 0 W/m2
06:25 49.9 °F /  9.9 °C 46.8 °F /  8.2 °C 30.03 in /  1016.8 hPa SW 18.0 mph /  29 km/h 24.0 mph /  38.6 km/h 89 % 0.00 in /  0 mm 0 W/m2
06:30 49.8 °F /  9.9 °C 46.7 °F /  8.2 °C 30.03 in /  1016.8 hPa SW 20.0 mph /  32.2 km/h 27.0 mph /  43.5 km/h 89 % 0.00 in /  0 mm 0 W/m2
06:35 49.9 °F /  9.9 °C 46.8 °F /  8.2 °C 30.03 in /  1016.8 hPa SW 21.0 mph /  33.8 km/h 27.0 mph /  43.5 km/h 89 % 0.00 in /  0 mm 0 W/m2
06:45 49.8 °F /  9.9 °C 46.7 °F /  8.2 °C 30.03 in /  1016.8 hPa SW 19.0 mph /  30.6 km/h 24.0 mph /  38.6 km/h 89 % 0.00 in /  0 mm 0 W/m2
06:50 49.8 °F /  9.9 °C 46.7 °F /  8.2 °C 30.03 in /  1016.8 hPa SSW 18.0 mph /  29 km/h 23.0 mph /  37 km/h 89 % 0.00 in /  0 mm 0 W/m2
07:00 49.6 °F /  9.8 °C 46.2 °F /  7.9 °C 30.03 in /  1016.8 hPa West 14.0 mph /  22.5 km/h 14.0 mph /  22.5 km/h 88 % 0.00 in /  0 mm 0 W/m2
07:05 49.6 °F /  9.8 °C 46.2 °F /  7.9 °C 30.03 in /  1016.8 hPa SW 12.0 mph /  19.3 km/h 14.0 mph /  22.5 km/h 88 % 0.00 in /  0 mm 0 W/m2
07:10 49.5 °F /  9.7 °C 46.1 °F /  7.8 °C 30.02 in /  1016.5 hPa SSW 11.0 mph /  17.7 km/h 15.0 mph /  24.1 km/h 88 % 0.00 in /  0 mm 0 W/m2
07:20 49.4 °F /  9.7 °C 45.7 °F /  7.6 °C 30.02 in /  1016.5 hPa SSW 15.0 mph /  24.1 km/h 16.0 mph /  25.7 km/h 87 % 0.00 in /  0 mm 0 W/m2
07:25 49.4 °F /  9.7 °C 45.7 °F /  7.6 °C 30.02 in /  1016.5 hPa SSW 14.0 mph /  22.5 km/h 21.0 mph /  33.8 km/h 87 % 0.00 in /  0 mm 0 W/m2
07:30 49.3 °F /  9.6 °C 45.3 °F /  7.4 °C 30.01 in /  1016.1 hPa West 16.0 mph /  25.7 km/h 16.0 mph /  25.7 km/h 86 % 0.00 in /  0 mm 0 W/m2
07:35 49.2 °F /  9.6 °C 45.2 °F /  7.3 °C 30.01 in /  1016.1 hPa SW 16.0 mph /  25.7 km/h 20.0 mph /  32.2 km/h 86 % 0.00 in /  0 mm 0 W/m2
07:45 49.2 °F /  9.6 °C 45.2 °F /  7.3 °C 30.00 in /  1015.8 hPa WSW 18.0 mph /  29 km/h 18.0 mph /  29 km/h 86 % 0.00 in /  0 mm 0 W/m2
07:50 49.1 °F /  9.5 °C 45.1 °F /  7.3 °C 30.00 in /  1015.8 hPa WSW 17.0 mph /  27.4 km/h 25.0 mph /  40.2 km/h 86 % 0.00 in /  0 mm 0 W/m2
07:55 49.0 °F /  9.4 °C 44.7 °F /  7.1 °C 30.00 in /  1015.8 hPa WSW 17.0 mph /  27.4 km/h 25.0 mph /  40.2 km/h 85 % 0.00 in /  0 mm 0 W/m2
08:00 48.9 °F /  9.4 °C 44.6 °F /  7 °C 30.00 in /  1015.8 hPa WSW 18.0 mph /  29 km/h 20.0 mph /  32.2 km/h 85 % 0.00 in /  0 mm 0 W/m2
08:05 48.9 °F /  9.4 °C 44.6 °F /  7 °C 29.99 in /  1015.5 hPa WSW 19.0 mph /  30.6 km/h 20.0 mph /  32.2 km/h 85 % 0.00 in /  0 mm 0 W/m2
08:10 48.8 °F /  9.3 °C 44.5 °F /  6.9 °C 29.99 in /  1015.5 hPa SW 16.0 mph /  25.7 km/h 16.0 mph /  25.7 km/h 85 % 0.00 in /  0 mm 0 W/m2
08:20 48.7 °F /  9.3 °C 44.4 °F /  6.9 °C 29.99 in /  1015.5 hPa WSW 15.0 mph /  24.1 km/h 21.0 mph /  33.8 km/h 85 % 0.00 in /  0 mm 0 W/m2
08:25 48.6 °F /  9.2 °C 44.6 °F /  7 °C 29.99 in /  1015.5 hPa WSW 16.0 mph /  25.7 km/h 21.0 mph /  33.8 km/h 86 % 0.00 in /  0 mm 0 W/m2
08:30 48.6 °F /  9.2 °C 44.3 °F /  6.8 °C 29.99 in /  1015.5 hPa SW 15.0 mph /  24.1 km/h 24.0 mph /  38.6 km/h 85 % 0.00 in /  0 mm 5 W/m2
08:35 48.6 °F /  9.2 °C 44.6 °F /  7 °C 29.98 in /  1015.1 hPa SSW 15.0 mph /  24.1 km/h 24.0 mph /  38.6 km/h 86 % 0.00 in /  0 mm 5 W/m2
08:40 48.5 °F /  9.2 °C 44.5 °F /  6.9 °C 29.98 in /  1015.1 hPa SW 16.0 mph /  25.7 km/h 16.0 mph /  25.7 km/h 86 % 0.00 in /  0 mm 9 W/m2
08:45 48.5 °F /  9.2 °C 44.5 °F /  6.9 °C 29.98 in /  1015.1 hPa SW 15.0 mph /  24.1 km/h 16.0 mph /  25.7 km/h 86 % 0.00 in /  0 mm 5 W/m2
08:50 48.3 °F /  9.1 °C 44.6 °F /  7 °C 29.97 in /  1014.8 hPa WSW 14.0 mph /  22.5 km/h 19.0 mph /  30.6 km/h 87 % 0.00 in /  0 mm 5 W/m2
09:00 48.0 °F /  8.9 °C 44.6 °F /  7 °C 29.97 in /  1014.8 hPa SW 15.0 mph /  24.1 km/h 23.0 mph /  37 km/h 88 % 0.00 in /  0 mm 14 W/m2
09:05 47.8 °F /  8.8 °C 44.7 °F /  7.1 °C 29.97 in /  1014.8 hPa WSW 16.0 mph /  25.7 km/h 23.0 mph /  37 km/h 89 % 0.08 in /  2.03 mm 14 W/m2
09:10 47.6 °F /  8.7 °C 44.8 °F /  7.1 °C 29.96 in /  1014.4 hPa WSW 15.0 mph /  24.1 km/h 18.0 mph /  29 km/h 90 % 0.08 in /  2.03 mm 14 W/m2
09:15 47.6 °F /  8.7 °C 44.8 °F /  7.1 °C 29.96 in /  1014.4 hPa SW 16.0 mph /  25.7 km/h 18.0 mph /  29 km/h 90 % 0.05 in /  1.27 mm 14 W/m2
09:20 47.5 °F /  8.6 °C 44.7 °F /  7.1 °C 29.95 in /  1014.1 hPa SSW 16.0 mph /  25.7 km/h 16.0 mph /  25.7 km/h 90 % 0.05 in /  1.27 mm 12 W/m2
09:25 47.4 °F /  8.6 °C 44.6 °F /  7 °C 29.95 in /  1014.1 hPa SSW 13.0 mph /  20.9 km/h 16.0 mph /  25.7 km/h 90 % 0.05 in /  1.27 mm 14 W/m2
09:40 47.2 °F /  8.4 °C 44.7 °F /  7.1 °C 29.94 in /  1013.8 hPa SSW 12.0 mph /  19.3 km/h 16.0 mph /  25.7 km/h 91 % 0.00 in /  0 mm 14 W/m2
09:45 47.2 °F /  8.4 °C 44.7 °F /  7.1 °C 29.94 in /  1013.8 hPa SSW 15.0 mph /  24.1 km/h 16.0 mph /  25.7 km/h 91 % 0.00 in /  0 mm 21 W/m2
09:55 47.2 °F /  8.4 °C 44.7 °F /  7.1 °C 29.93 in /  1013.4 hPa SW 14.0 mph /  22.5 km/h 20.0 mph /  32.2 km/h 91 % 0.00 in /  0 mm 30 W/m2
10:00 47.2 °F /  8.4 °C 44.7 °F /  7.1 °C 29.93 in /  1013.4 hPa WSW 14.0 mph /  22.5 km/h 14.0 mph /  22.5 km/h 91 % 0.00 in /  0 mm 25 W/m2
10:05 47.3 °F /  8.5 °C 44.8 °F /  7.1 °C 29.93 in /  1013.4 hPa SW 14.0 mph /  22.5 km/h 14.0 mph /  22.5 km/h 91 % 0.00 in /  0 mm 21 W/m2
10:10 47.3 °F /  8.5 °C 44.8 °F /  7.1 °C 29.93 in /  1013.4 hPa SSW 15.0 mph /  24.1 km/h 15.0 mph /  24.1 km/h 91 % 0.00 in /  0 mm 16 W/m2
10:15 47.3 °F /  8.5 °C 44.8 °F /  7.1 °C 29.92 in /  1013.1 hPa SW 14.0 mph /  22.5 km/h 15.0 mph /  24.1 km/h 91 % 0.00 in /  0 mm 19 W/m2
10:20 47.3 °F /  8.5 °C 44.8 °F /  7.1 °C 29.92 in /  1013.1 hPa SSW 14.0 mph /  22.5 km/h 18.0 mph /  29 km/h 91 % 0.00 in /  0 mm 26 W/m2
10:25 47.3 °F /  8.5 °C 44.8 °F /  7.1 °C 29.92 in /  1013.1 hPa SW 14.0 mph /  22.5 km/h 18.0 mph /  29 km/h 91 % 0.00 in /  0 mm 26 W/m2
10:30 47.1 °F /  8.4 °C 44.9 °F /  7.2 °C 29.92 in /  1013.1 hPa SSW 14.0 mph /  22.5 km/h 14.0 mph /  22.5 km/h 92 % 0.00 in /  0 mm 26 W/m2
10:40 47.1 °F /  8.4 °C 44.9 °F /  7.2 °C 29.91 in /  1012.8 hPa West 15.0 mph /  24.1 km/h 15.0 mph /  24.1 km/h 92 % 0.00 in /  0 mm 46 W/m2
10:45 47.1 °F /  8.4 °C 44.9 °F /  7.2 °C 29.90 in /  1012.4 hPa SW 14.0 mph /  22.5 km/h 18.0 mph /  29 km/h 92 % 0.00 in /  0 mm 51 W/m2
10:50 47.1 °F /  8.4 °C 44.9 °F /  7.2 °C 29.90 in /  1012.4 hPa SSW 14.0 mph /  22.5 km/h 16.0 mph /  25.7 km/h 92 % 0.00 in /  0 mm 42 W/m2
10:55 47.1 °F /  8.4 °C 44.9 °F /  7.2 °C 29.89 in /  1012.1 hPa SSW 15.0 mph /  24.1 km/h 16.0 mph /  25.7 km/h 92 % 0.00 in /  0 mm 51 W/m2
11:00 47.1 °F /  8.4 °C 44.9 °F /  7.2 °C 29.89 in /  1012.1 hPa SSW 15.0 mph /  24.1 km/h 15.0 mph /  24.1 km/h 92 % 0.00 in /  0 mm 42 W/m2
11:05 47.1 °F /  8.4 °C 44.9 °F /  7.2 °C 29.89 in /  1012.1 hPa South 15.0 mph /  24.1 km/h 15.0 mph /  24.1 km/h 92 % 0.00 in /  0 mm 53 W/m2
11:10 47.2 °F /  8.4 °C 45.0 °F /  7.2 °C 29.88 in /  1011.7 hPa South 15.0 mph /  24.1 km/h 15.0 mph /  24.1 km/h 92 % 0.00 in /  0 mm 91 W/m2
11:20 47.3 °F /  8.5 °C 45.1 °F /  7.3 °C 29.88 in /  1011.7 hPa South 15.0 mph /  24.1 km/h 15.0 mph /  24.1 km/h 92 % 0.00 in /  0 mm 90 W/m2
11:25 47.4 °F /  8.6 °C 45.2 °F /  7.3 °C 29.87 in /  1011.4 hPa SSW 15.0 mph /  24.1 km/h 19.0 mph /  30.6 km/h 92 % 0.00 in /  0 mm 90 W/m2
11:30 47.4 °F /  8.6 °C 45.2 °F /  7.3 °C 29.87 in /  1011.4 hPa SW 14.0 mph /  22.5 km/h 14.0 mph /  22.5 km/h 92 % 0.00 in /  0 mm 65 W/m2
11:35 47.5 °F /  8.6 °C 45.3 °F /  7.4 °C 29.87 in /  1011.4 hPa SSW 13.0 mph /  20.9 km/h 16.0 mph /  25.7 km/h 92 % 0.00 in /  0 mm 102 W/m2
11:40 47.7 °F /  8.7 °C 45.2 °F /  7.3 °C 29.86 in /  1011.1 hPa SSW 13.0 mph /  20.9 km/h 13.0 mph /  20.9 km/h 91 % 0.00 in /  0 mm 63 W/m2
11:45 47.8 °F /  8.8 °C 45.3 °F /  7.4 °C 29.86 in /  1011.1 hPa SSW 13.0 mph /  20.9 km/h 14.0 mph /  22.5 km/h 91 % 0.00 in /  0 mm 49 W/m2
11:50 47.9 °F /  8.8 °C 45.4 °F /  7.4 °C 29.86 in /  1011.1 hPa SSW 12.0 mph /  19.3 km/h 19.0 mph /  30.6 km/h 91 % 0.00 in /  0 mm 60 W/m2
12:00 47.9 °F /  8.8 °C 45.4 °F /  7.4 °C 29.85 in /  1010.7 hPa SSW 11.0 mph /  17.7 km/h 11.0 mph /  17.7 km/h 91 % 0.00 in /  0 mm 47 W/m2
12:10 48.1 °F /  8.9 °C 45.6 °F /  7.6 °C 29.84 in /  1010.4 hPa SSW 13.0 mph /  20.9 km/h 13.0 mph /  20.9 km/h 91 % 0.00 in /  0 mm 60 W/m2
12:15 48.1 °F /  8.9 °C 45.6 °F /  7.6 °C 29.84 in /  1010.4 hPa SW 12.0 mph /  19.3 km/h 13.0 mph /  20.9 km/h 91 % 0.00 in /  0 mm 54 W/m2
12:20 48.1 °F /  8.9 °C 45.6 °F /  7.6 °C 29.84 in /  1010.4 hPa SW 11.0 mph /  17.7 km/h 11.0 mph /  17.7 km/h 91 % 0.00 in /  0 mm 60 W/m2
12:25 48.1 °F /  8.9 °C 45.6 °F /  7.6 °C 29.84 in /  1010.4 hPa SSW 10.0 mph /  16.1 km/h 11.0 mph /  17.7 km/h 91 % 0.00 in /  0 mm 35 W/m2
12:30 48.1 °F /  8.9 °C 45.9 °F /  7.7 °C 29.83 in /  1010 hPa SSW 8.0 mph /  12.9 km/h 8.0 mph /  12.9 km/h 92 % 0.00 in /  0 mm 56 W/m2
12:40 48.1 °F /  8.9 °C 45.9 °F /  7.7 °C 29.83 in /  1010 hPa SW 8.0 mph /  12.9 km/h 8.0 mph /  12.9 km/h 92 % 0.00 in /  0 mm 11 W/m2
12:45 48.1 °F /  8.9 °C 45.9 °F /  7.7 °C 29.84 in /  1010.4 hPa WSW 8.0 mph /  12.9 km/h 8.0 mph /  12.9 km/h 92 % 0.00 in /  0 mm 16 W/m2
12:50 47.8 °F /  8.8 °C 45.3 °F /  7.4 °C 29.84 in /  1010.4 hPa WNW 11.0 mph /  17.7 km/h 11.0 mph /  17.7 km/h 91 % 0.00 in /  0 mm 25 W/m2
12:55 47.0 °F /  8.3 °C 44.2 °F /  6.8 °C 29.84 in /  1010.4 hPa West 13.0 mph /  20.9 km/h 16.0 mph /  25.7 km/h 90 % 0.00 in /  0 mm 46 W/m2
13:00 46.4 °F /  8 °C 43.3 °F /  6.3 °C 29.84 in /  1010.4 hPa WNW 13.0 mph /  20.9 km/h 13.0 mph /  20.9 km/h 89 % 0.00 in /  0 mm 51 W/m2
13:05 46.0 °F /  7.8 °C 43.2 °F /  6.2 °C 29.84 in /  1010.4 hPa WNW 11.0 mph /  17.7 km/h 13.0 mph /  20.9 km/h 90 % 0.00 in /  0 mm 63 W/m2
13:15 45.7 °F /  7.6 °C 43.2 °F /  6.2 °C 29.84 in /  1010.4 hPa WNW 9.0 mph /  14.5 km/h 10.0 mph /  16.1 km/h 91 % 0.00 in /  0 mm 39 W/m2
13:20 45.6 °F /  7.6 °C 43.1 °F /  6.2 °C 29.84 in /  1010.4 hPa West 9.0 mph /  14.5 km/h 14.0 mph /  22.5 km/h 91 % 0.00 in /  0 mm 44 W/m2
13:25 45.4 °F /  7.4 °C 42.9 °F /  6.1 °C 29.84 in /  1010.4 hPa WNW 9.0 mph /  14.5 km/h 14.0 mph /  22.5 km/h 91 % 0.00 in /  0 mm 28 W/m2
13:30 45.2 °F /  7.3 °C 42.4 °F /  5.8 °C 29.84 in /  1010.4 hPa WNW 10.0 mph /  16.1 km/h 10.0 mph /  16.1 km/h 90 % 0.00 in /  0 mm 26 W/m2
13:35 45.0 °F /  7.2 °C 42.2 °F /  5.7 °C 29.84 in /  1010.4 hPa West 10.0 mph /  16.1 km/h 10.0 mph /  16.1 km/h 90 % 0.00 in /  0 mm 26 W/m2
13:40 44.8 °F /  7.1 °C 41.8 °F /  5.4 °C 29.84 in /  1010.4 hPa West 9.0 mph /  14.5 km/h 12.0 mph /  19.3 km/h 89 % 0.00 in /  0 mm 25 W/m2
13:45 44.6 °F /  7 °C 41.6 °F /  5.3 °C 29.84 in /  1010.4 hPa SW 8.0 mph /  12.9 km/h 12.0 mph /  19.3 km/h 89 % 0.00 in /  0 mm 26 W/m2
13:55 44.3 °F /  6.8 °C 41.3 °F /  5.2 °C 29.83 in /  1010 hPa WSW 9.0 mph /  14.5 km/h 11.0 mph /  17.7 km/h 89 % 0.00 in /  0 mm 70 W/m2
14:00 44.2 °F /  6.8 °C 41.5 °F /  5.3 °C 29.83 in /  1010 hPa West 8.0 mph /  12.9 km/h 8.0 mph /  12.9 km/h 90 % 0.00 in /  0 mm 74 W/m2
14:05 44.2 °F /  6.8 °C 41.7 °F /  5.4 °C 29.83 in /  1010 hPa West 7.0 mph /  11.3 km/h 8.0 mph /  12.9 km/h 91 % 0.00 in /  0 mm 51 W/m2
14:10 44.1 °F /  6.7 °C 41.6 °F /  5.3 °C 29.83 in /  1010 hPa WSW 7.0 mph /  11.3 km/h 8.0 mph /  12.9 km/h 91 % 0.00 in /  0 mm 53 W/m2
14:15 43.9 °F /  6.6 °C 41.4 °F /  5.2 °C 29.83 in /  1010 hPa West 8.0 mph /  12.9 km/h 8.0 mph /  12.9 km/h 91 % 0.00 in /  0 mm 53 W/m2
14:20 43.9 °F /  6.6 °C 41.2 °F /  5.1 °C 29.82 in /  1009.7 hPa West 9.0 mph /  14.5 km/h 9.0 mph /  14.5 km/h 90 % 0.00 in /  0 mm 56 W/m2
14:25 43.8 °F /  6.6 °C 41.1 °F /  5.1 °C 29.82 in /  1009.7 hPa WNW 8.0 mph /  12.9 km/h 9.0 mph /  14.5 km/h 90 % 0.00 in /  0 mm 77 W/m2
14:35 44.0 °F /  6.7 °C 41.3 °F /  5.2 °C 29.82 in /  1009.7 hPa WSW 7.0 mph /  11.3 km/h 11.0 mph /  17.7 km/h 90 % 0.00 in /  0 mm 132 W/m2
14:40 44.1 °F /  6.7 °C 41.4 °F /  5.2 °C 29.82 in /  1009.7 hPa WSW 7.0 mph /  11.3 km/h 8.0 mph /  12.9 km/h 90 % 0.00 in /  0 mm 30 W/m2
14:45 44.1 °F /  6.7 °C 41.1 °F /  5.1 °C 29.81 in /  1009.4 hPa WNW 7.0 mph /  11.3 km/h 8.0 mph /  12.9 km/h 89 % 0.00 in /  0 mm 32 W/m2
14:50 44.0 °F /  6.7 °C 41.0 °F /  5 °C 29.81 in /  1009.4 hPa West 7.0 mph /  11.3 km/h 11.0 mph /  17.7 km/h 89 % 0.00 in /  0 mm 33 W/m2
14:55 44.0 °F /  6.7 °C 40.7 °F /  4.8 °C 29.81 in /  1009.4 hPa West 7.0 mph /  11.3 km/h 11.0 mph /  17.7 km/h 88 % 0.00 in /  0 mm 35 W/m2
15:05 43.8 °F /  6.6 °C 40.5 °F /  4.7 °C 29.81 in /  1009.4 hPa WNW 6.0 mph /  9.7 km/h 6.0 mph /  9.7 km/h 88 % 0.00 in /  0 mm 23 W/m2
15:10 43.7 °F /  6.5 °C 40.4 °F /  4.7 °C 29.80 in /  1009 hPa West 6.0 mph /  9.7 km/h 6.0 mph /  9.7 km/h 88 % 0.00 in /  0 mm 23 W/m2
15:15 43.7 °F /  6.5 °C 40.4 °F /  4.7 °C 29.80 in /  1009 hPa WNW 6.0 mph /  9.7 km/h 6.0 mph /  9.7 km/h 88 % 0.00 in /  0 mm 44 W/m2
15:20 43.8 °F /  6.6 °C 40.8 °F /  4.9 °C 29.80 in /  1009 hPa West 6.0 mph /  9.7 km/h 7.0 mph /  11.3 km/h 89 % 0.00 in /  0 mm 70 W/m2
15:25 43.9 °F /  6.6 °C 40.9 °F /  4.9 °C 29.80 in /  1009 hPa West 6.0 mph /  9.7 km/h 7.0 mph /  11.3 km/h 89 % 0.00 in /  0 mm 25 W/m2
15:30 43.8 °F /  6.6 °C 40.5 °F /  4.7 °C 29.80 in /  1009 hPa WNW 6.0 mph /  9.7 km/h 6.0 mph /  9.7 km/h 88 % 0.00 in /  0 mm 19 W/m2
15:40 43.5 °F /  6.4 °C 39.9 °F /  4.4 °C 29.80 in /  1009 hPa WNW 8.0 mph /  12.9 km/h 10.0 mph /  16.1 km/h 87 % 0.00 in /  0 mm 12 W/m2
15:45 43.3 °F /  6.3 °C 39.7 °F /  4.3 °C 29.80 in /  1009 hPa WNW 9.0 mph /  14.5 km/h 12.0 mph /  19.3 km/h 87 % 0.00 in /  0 mm 9 W/m2
15:50 43.1 °F /  6.2 °C 39.5 °F /  4.2 °C 29.80 in /  1009 hPa West 9.0 mph /  14.5 km/h 9.0 mph /  14.5 km/h 87 % 0.00 in /  0 mm 9 W/m2
15:55 43.0 °F /  6.1 °C 39.4 °F /  4.1 °C 29.79 in /  1008.7 hPa WNW 9.0 mph /  14.5 km/h 9.0 mph /  14.5 km/h 87 % 0.00 in /  0 mm 7 W/m2
16:00 42.8 °F /  6 °C 39.2 °F /  4 °C 29.80 in /  1009 hPa West 8.0 mph /  12.9 km/h 9.0 mph /  14.5 km/h 87 % 0.00 in /  0 mm 7 W/m2
16:05 42.7 °F /  5.9 °C 39.1 °F /  3.9 °C 29.80 in /  1009 hPa WNW 9.0 mph /  14.5 km/h 21.0 mph /  33.8 km/h 87 % 0.00 in /  0 mm 5 W/m2
16:15 42.6 °F /  5.9 °C 39.0 °F /  3.9 °C 29.80 in /  1009 hPa WNW 10.0 mph /  16.1 km/h 11.0 mph /  17.7 km/h 87 % 0.00 in /  0 mm 0 W/m2
16:20 42.4 °F /  5.8 °C 38.5 °F /  3.6 °C 29.80 in /  1009 hPa West 8.0 mph /  12.9 km/h 8.0 mph /  12.9 km/h 86 % 0.00 in /  0 mm 0 W/m2
16:25 42.2 °F /  5.7 °C 38.6 °F /  3.7 °C 29.80 in /  1009 hPa West 8.0 mph /  12.9 km/h 8.0 mph /  12.9 km/h 87 % 0.00 in /  0 mm 0 W/m2
16:30 42.1 °F /  5.6 °C 38.5 °F /  3.6 °C 29.80 in /  1009 hPa West 7.0 mph /  11.3 km/h 8.0 mph /  12.9 km/h 87 % 0.00 in /  0 mm 0 W/m2
16:35 42.0 °F /  5.6 °C 38.4 °F /  3.6 °C 29.79 in /  1008.7 hPa WNW 6.0 mph /  9.7 km/h 8.0 mph /  12.9 km/h 87 % 0.00 in /  0 mm 0 W/m2
16:45 41.8 °F /  5.4 °C 38.2 °F /  3.4 °C 29.79 in /  1008.7 hPa WSW 6.0 mph /  9.7 km/h 8.0 mph /  12.9 km/h 87 % 0.00 in /  0 mm 0 W/m2
16:50 41.8 °F /  5.4 °C 38.5 °F /  3.6 °C 29.79 in /  1008.7 hPa West 6.0 mph /  9.7 km/h 9.0 mph /  14.5 km/h 88 % 0.00 in /  0 mm 0 W/m2
16:55 41.8 °F /  5.4 °C 38.5 °F /  3.6 °C 29.78 in /  1008.4 hPa SW 5.0 mph /  8 km/h 9.0 mph /  14.5 km/h 88 % 0.00 in /  0 mm 0 W/m2
17:00 41.7 °F /  5.4 °C 38.4 °F /  3.6 °C 29.79 in /  1008.7 hPa SW 4.0 mph /  6.4 km/h 5.0 mph /  8 km/h 88 % 0.00 in /  0 mm 0 W/m2
17:10 41.5 °F /  5.3 °C 38.2 °F /  3.4 °C 29.79 in /  1008.7 hPa West 4.0 mph /  6.4 km/h 6.0 mph /  9.7 km/h 88 % 0.00 in /  0 mm 0 W/m2
17:20 41.7 °F /  5.4 °C 38.7 °F /  3.7 °C 29.79 in /  1008.7 hPa West 10.0 mph /  16.1 km/h 10.0 mph /  16.1 km/h 89 % 0.00 in /  0 mm 0 W/m2
17:25 41.7 °F /  5.4 °C 38.7 °F /  3.7 °C 29.79 in /  1008.7 hPa WNW 11.0 mph /  17.7 km/h 11.0 mph /  17.7 km/h 89 % 0.00 in /  0 mm 0 W/m2
17:30 41.7 °F /  5.4 °C 38.7 °F /  3.7 °C 29.79 in /  1008.7 hPa WNW 9.0 mph /  14.5 km/h 9.0 mph /  14.5 km/h 89 % 0.00 in /  0 mm 0 W/m2
17:35 41.6 °F /  5.3 °C 38.9 °F /  3.8 °C 29.79 in /  1008.7 hPa West 9.0 mph /  14.5 km/h 9.0 mph /  14.5 km/h 90 % 0.00 in /  0 mm 0 W/m2
17:45 41.5 °F /  5.3 °C 39.1 °F /  3.9 °C 29.80 in /  1009 hPa WNW 7.0 mph /  11.3 km/h 10.0 mph /  16.1 km/h 91 % 0.00 in /  0 mm 0 W/m2
17:55 41.4 °F /  5.2 °C 38.7 °F /  3.7 °C 29.79 in /  1008.7 hPa WNW 9.0 mph /  14.5 km/h 10.0 mph /  16.1 km/h 90 % 0.00 in /  0 mm 0 W/m2
18:00 41.2 °F /  5.1 °C 38.5 °F /  3.6 °C 29.79 in /  1008.7 hPa West 7.0 mph /  11.3 km/h 7.0 mph /  11.3 km/h 90 % 0.00 in /  0 mm 0 W/m2
18:05 41.0 °F /  5 °C 38.3 °F /  3.5 °C 29.79 in /  1008.7 hPa WNW 6.0 mph /  9.7 km/h 7.0 mph /  11.3 km/h 90 % 0.00 in /  0 mm 0 W/m2
18:10 40.8 °F /  4.9 °C 38.1 °F /  3.4 °C 29.79 in /  1008.7 hPa West 5.0 mph /  8 km/h 5.0 mph /  8 km/h 90 % 0.00 in /  0 mm 0 W/m2
18:20 40.4 °F /  4.7 °C 37.7 °F /  3.2 °C 29.78 in /  1008.4 hPa West 3.0 mph /  4.8 km/h 4.0 mph /  6.4 km/h 90 % 0.00 in /  0 mm 0 W/m2
18:25 40.4 °F /  4.7 °C 37.7 °F /  3.2 °C 29.79 in /  1008.7 hPa West 5.0 mph /  8 km/h 13.0 mph /  20.9 km/h 90 % 0.00 in /  0 mm 0 W/m2
18:30 40.7 °F /  4.8 °C 38.3 °F /  3.5 °C 29.78 in /  1008.4 hPa West 8.0 mph /  12.9 km/h 11.0 mph /  17.7 km/h 91 % 0.00 in /  0 mm 0 W/m2
18:35 40.8 °F /  4.9 °C 38.4 °F /  3.6 °C 29.78 in /  1008.4 hPa West 9.0 mph /  14.5 km/h 11.0 mph /  17.7 km/h 91 % 0.00 in /  0 mm 0 W/m2
18:40 40.8 °F /  4.9 °C 38.4 °F /  3.6 °C 29.78 in /  1008.4 hPa WNW 8.0 mph /  12.9 km/h 11.0 mph /  17.7 km/h 91 % 0.00 in /  0 mm 0 W/m2
18:45 40.9 °F /  4.9 °C 38.2 °F /  3.4 °C 29.78 in /  1008.4 hPa West 8.0 mph /  12.9 km/h 11.0 mph /  17.7 km/h 90 % 0.00 in /  0 mm 0 W/m2
18:55 40.7 °F /  4.8 °C 38.0 °F /  3.3 °C 29.78 in /  1008.4 hPa West 4.0 mph /  6.4 km/h 6.0 mph /  9.7 km/h 90 % 0.00 in /  0 mm 0 W/m2
19:00 40.6 °F /  4.8 °C 38.2 °F /  3.4 °C 29.78 in /  1008.4 hPa WSW 4.0 mph /  6.4 km/h 5.0 mph /  8 km/h 91 % 0.00 in /  0 mm 0 W/m2
19:05 40.6 °F /  4.8 °C 38.2 °F /  3.4 °C 29.77 in /  1008 hPa West 7.0 mph /  11.3 km/h 7.0 mph /  11.3 km/h 91 % 0.00 in /  0 mm 0 W/m2
19:10 40.7 °F /  4.8 °C 38.3 °F /  3.5 °C 29.78 in /  1008.4 hPa West 8.0 mph /  12.9 km/h 8.0 mph /  12.9 km/h 91 % 0.00 in /  0 mm 0 W/m2
19:15 40.8 °F /  4.9 °C 38.4 °F /  3.6 °C 29.78 in /  1008.4 hPa West 9.0 mph /  14.5 km/h 15.0 mph /  24.1 km/h 91 % 0.00 in /  0 mm 0 W/m2
19:20 41.1 °F /  5.1 °C 38.4 °F /  3.6 °C 29.78 in /  1008.4 hPa West 12.0 mph /  19.3 km/h 19.0 mph /  30.6 km/h 90 % 0.00 in /  0 mm 0 W/m2
19:30 40.8 °F /  4.9 °C 38.1 °F /  3.4 °C 29.77 in /  1008 hPa West 14.0 mph /  22.5 km/h 14.0 mph /  22.5 km/h 90 % 0.00 in /  0 mm 0 W/m2
19:35 40.5 °F /  4.7 °C 37.8 °F /  3.2 °C 29.77 in /  1008 hPa WNW 10.0 mph /  16.1 km/h 14.0 mph /  22.5 km/h 90 % 0.00 in /  0 mm 0 W/m2
19:40 40.2 °F /  4.6 °C 37.5 °F /  3.1 °C 29.77 in /  1008 hPa WNW 9.0 mph /  14.5 km/h 9.0 mph /  14.5 km/h 90 % 0.00 in /  0 mm 0 W/m2
19:45 40.1 °F /  4.5 °C 37.7 °F /  3.2 °C 29.76 in /  1007.7 hPa West 8.0 mph /  12.9 km/h 9.0 mph /  14.5 km/h 91 % 0.00 in /  0 mm 0 W/m2
19:50 40.0 °F /  4.4 °C 37.6 °F /  3.1 °C 29.76 in /  1007.7 hPa WNW 7.0 mph /  11.3 km/h 7.0 mph /  11.3 km/h 91 % 0.00 in /  0 mm 0 W/m2
19:55 39.9 °F /  4.4 °C 37.5 °F /  3.1 °C 29.76 in /  1007.7 hPa West 8.0 mph /  12.9 km/h 8.0 mph /  12.9 km/h 91 % 0.00 in /  0 mm 0 W/m2
20:05 39.9 °F /  4.4 °C 37.5 °F /  3.1 °C 29.75 in /  1007.3 hPa West 9.0 mph /  14.5 km/h 15.0 mph /  24.1 km/h 91 % 0.00 in /  0 mm 0 W/m2
20:10 40.2 °F /  4.6 °C 37.8 °F /  3.2 °C 29.76 in /  1007.7 hPa West 10.0 mph /  16.1 km/h 14.0 mph /  22.5 km/h 91 % 0.00 in /  0 mm 0 W/m2
20:15 40.7 °F /  4.8 °C 38.3 °F /  3.5 °C 29.77 in /  1008 hPa West 12.0 mph /  19.3 km/h 14.0 mph /  22.5 km/h 91 % 0.00 in /  0 mm 0 W/m2
20:20 41.0 °F /  5 °C 38.6 °F /  3.7 °C 29.76 in /  1007.7 hPa WSW 13.0 mph /  20.9 km/h 16.0 mph /  25.7 km/h 91 % 0.00 in /  0 mm 0 W/m2
20:25 41.0 °F /  5 °C 38.6 °F /  3.7 °C 29.76 in /  1007.7 hPa WSW 13.0 mph /  20.9 km/h 16.0 mph /  25.7 km/h 91 % 0.00 in /  0 mm 0 W/m2
20:30 40.8 °F /  4.9 °C 38.4 °F /  3.6 °C 29.75 in /  1007.3 hPa WSW 12.0 mph /  19.3 km/h 12.0 mph /  19.3 km/h 91 % 0.00 in /  0 mm 0 W/m2
20:40 40.6 °F /  4.8 °C 38.2 °F /  3.4 °C 29.75 in /  1007.3 hPa West 8.0 mph /  12.9 km/h 10.0 mph /  16.1 km/h 91 % 0.00 in /  0 mm 0 W/m2
20:45 40.7 °F /  4.8 °C 38.3 °F /  3.5 °C 29.74 in /  1007 hPa West 8.0 mph /  12.9 km/h 11.0 mph /  17.7 km/h 91 % 0.00 in /  0 mm 0 W/m2
20:50 40.8 °F /  4.9 °C 38.4 °F /  3.6 °C 29.74 in /  1007 hPa SW 8.0 mph /  12.9 km/h 10.0 mph /  16.1 km/h 91 % 0.00 in /  0 mm 0 W/m2
20:55 41.0 °F /  5 °C 38.6 °F /  3.7 °C 29.74 in /  1007 hPa WSW 8.0 mph /  12.9 km/h 14.0 mph /  22.5 km/h 91 % 0.00 in /  0 mm 0 W/m2
21:00 41.0 °F /  5 °C 38.6 °F /  3.7 °C 29.74 in /  1007 hPa WSW 7.0 mph /  11.3 km/h 8.0 mph /  12.9 km/h 91 % 0.00 in /  0 mm 0 W/m2
21:05 41.2 °F /  5.1 °C 38.8 °F /  3.8 °C 29.74 in /  1007 hPa WSW 8.0 mph /  12.9 km/h 12.0 mph /  19.3 km/h 91 % 0.00 in /  0 mm 0 W/m2
21:10 41.3 °F /  5.2 °C 38.9 °F /  3.8 °C 29.73 in /  1006.7 hPa WSW 9.0 mph /  14.5 km/h 9.0 mph /  14.5 km/h 91 % 0.00 in /  0 mm 0 W/m2
21:15 41.3 °F /  5.2 °C 38.9 °F /  3.8 °C 29.73 in /  1006.7 hPa West 8.0 mph /  12.9 km/h 9.0 mph /  14.5 km/h 91 % 0.00 in /  0 mm 0 W/m2
21:25 41.2 °F /  5.1 °C 38.8 °F /  3.8 °C 29.73 in /  1006.7 hPa West 11.0 mph /  17.7 km/h 16.0 mph /  25.7 km/h 91 % 0.00 in /  0 mm 0 W/m2
21:30 41.3 °F /  5.2 °C 38.9 °F /  3.8 °C 29.72 in /  1006.3 hPa West 13.0 mph /  20.9 km/h 13.0 mph /  20.9 km/h 91 % 0.00 in /  0 mm 0 W/m2
21:35 41.4 °F /  5.2 °C 38.7 °F /  3.7 °C 29.72 in /  1006.3 hPa West 12.0 mph /  19.3 km/h 13.0 mph /  20.9 km/h 90 % 0.00 in /  0 mm 0 W/m2
21:40 41.4 °F /  5.2 °C 39.0 °F /  3.9 °C 29.72 in /  1006.3 hPa West 10.0 mph /  16.1 km/h 12.0 mph /  19.3 km/h 91 % 0.00 in /  0 mm 0 W/m2
21:50 41.5 °F /  5.3 °C 38.8 °F /  3.8 °C 29.72 in /  1006.3 hPa West 10.0 mph /  16.1 km/h 10.0 mph /  16.1 km/h 90 % 0.00 in /  0 mm 0 W/m2
21:55 41.6 °F /  5.3 °C 38.9 °F /  3.8 °C 29.72 in /  1006.3 hPa West 11.0 mph /  17.7 km/h 12.0 mph /  19.3 km/h 90 % 0.00 in /  0 mm 0 W/m2
22:00 41.5 °F /  5.3 °C 38.8 °F /  3.8 °C 29.72 in /  1006.3 hPa West 11.0 mph /  17.7 km/h 11.0 mph /  17.7 km/h 90 % 0.00 in /  0 mm 0 W/m2
22:05 41.5 °F /  5.3 °C 38.8 °F /  3.8 °C 29.72 in /  1006.3 hPa WNW 11.0 mph /  17.7 km/h 11.0 mph /  17.7 km/h 90 % 0.00 in /  0 mm 0 W/m2
22:10 41.4 °F /  5.2 °C 38.4 °F /  3.6 °C 29.72 in /  1006.3 hPa West 11.0 mph /  17.7 km/h 11.0 mph /  17.7 km/h 89 % 0.00 in /  0 mm 0 W/m2
22:20 41.4 °F /  5.2 °C 38.4 °F /  3.6 °C 29.71 in /  1006 hPa SW 9.0 mph /  14.5 km/h 10.0 mph /  16.1 km/h 89 % 0.00 in /  0 mm 0 W/m2
22:25 41.4 °F /  5.2 °C 38.4 °F /  3.6 °C 29.71 in /  1006 hPa West 10.0 mph /  16.1 km/h 10.0 mph /  16.1 km/h 89 % 0.00 in /  0 mm 0 W/m2
22:30 41.5 °F /  5.3 °C 38.5 °F /  3.6 °C 29.71 in /  1006 hPa West 11.0 mph /  17.7 km/h 18.0 mph /  29 km/h 89 % 0.00 in /  0 mm 0 W/m2
22:35 41.7 °F /  5.4 °C 38.4 °F /  3.6 °C 29.70 in /  1005.6 hPa West 11.0 mph /  17.7 km/h 18.0 mph /  29 km/h 88 % 0.00 in /  0 mm 0 W/m2
22:40 41.7 °F /  5.4 °C 38.4 °F /  3.6 °C 29.70 in /  1005.6 hPa WNW 13.0 mph /  20.9 km/h 14.0 mph /  22.5 km/h 88 % 0.00 in /  0 mm 0 W/m2
22:50 41.9 °F /  5.5 °C 38.6 °F /  3.7 °C 29.71 in /  1006 hPa WSW 12.0 mph /  19.3 km/h 12.0 mph /  19.3 km/h 88 % 0.00 in /  0 mm 0 W/m2
22:55 41.9 °F /  5.5 °C 38.6 °F /  3.7 °C 29.70 in /  1005.6 hPa West 9.0 mph /  14.5 km/h 12.0 mph /  19.3 km/h 88 % 0.00 in /  0 mm 0 W/m2
23:00 41.9 °F /  5.5 °C 38.6 °F /  3.7 °C 29.70 in /  1005.6 hPa NW 11.0 mph /  17.7 km/h 11.0 mph /  17.7 km/h 88 % 0.00 in /  0 mm 0 W/m2
23:05 42.0 °F /  5.6 °C 38.7 °F /  3.7 °C 29.70 in /  1005.6 hPa West 12.0 mph /  19.3 km/h 12.0 mph /  19.3 km/h 88 % 0.00 in /  0 mm 0 W/m2
23:10 42.0 °F /  5.6 °C 38.7 °F /  3.7 °C 29.70 in /  1005.6 hPa WNW 12.0 mph /  19.3 km/h 13.0 mph /  20.9 km/h 88 % 0.00 in /  0 mm 0 W/m2
23:15 42.2 °F /  5.7 °C 38.6 °F /  3.7 °C 29.70 in /  1005.6 hPa West 13.0 mph /  20.9 km/h 13.0 mph /  20.9 km/h 87 % 0.00 in /  0 mm 0 W/m2
23:25 42.1 °F /  5.6 °C 38.8 °F /  3.8 °C 29.70 in /  1005.6 hPa West 9.0 mph /  14.5 km/h 12.0 mph /  19.3 km/h 88 % 0.00 in /  0 mm 0 W/m2
23:30 41.9 °F /  5.5 °C 38.6 °F /  3.7 °C 29.70 in /  1005.6 hPa West 9.0 mph /  14.5 km/h 9.0 mph /  14.5 km/h 88 % 0.00 in /  0 mm 0 W/m2
23:35 41.8 °F /  5.4 °C 38.5 °F /  3.6 °C 29.70 in /  1005.6 hPa West 8.0 mph /  12.9 km/h 9.0 mph /  14.5 km/h 88 % 0.00 in /  0 mm 0 W/m2
23:40 41.6 °F /  5.3 °C 38.6 °F /  3.7 °C 29.69 in /  1005.3 hPa West 7.0 mph /  11.3 km/h 7.0 mph /  11.3 km/h 89 % 0.00 in /  0 mm 0 W/m2
23:45 41.6 °F /  5.3 °C 38.6 °F /  3.7 °C 29.69 in /  1005.3 hPa West 8.0 mph /  12.9 km/h 9.0 mph /  14.5 km/h 89 % 0.00 in /  0 mm 0 W/m2
23:50 41.6 °F /  5.3 °C 38.6 °F /  3.7 °C 29.69 in /  1005.3 hPa West 10.0 mph /  16.1 km/h 12.0 mph /  19.3 km/h 89 % 0.00 in /  0 mm 0 W/m2
Delerius-Weather
Compliments of Weather Underground - 2 mb

Data updates at regular intervals.